sensor_id;sensor_type;location;lat;lon;timestamp;P1;durP1;ratioP1;P2;durP2;ratioP2
15486;SDS011;7845;53.698;10.078;2024-03-02T00:02:21;36.33;;;33.33;;
15486;SDS011;7845;53.698;10.078;2024-03-02T00:04:46;32.67;;;29.33;;
15486;SDS011;7845;53.698;10.078;2024-03-02T00:07:12;31.00;;;28.33;;
15486;SDS011;7845;53.698;10.078;2024-03-02T00:09:39;27.25;;;25.00;;
15486;SDS011;7845;53.698;10.078;2024-03-02T00:12:04;31.33;;;28.00;;
15486;SDS011;7845;53.698;10.078;2024-03-02T00:14:30;42.00;;;35.33;;
15486;SDS011;7845;53.698;10.078;2024-03-02T00:16:55;34.67;;;33.67;;
15486;SDS011;7845;53.698;10.078;2024-03-02T00:19:21;43.67;;;35.00;;
15486;SDS011;7845;53.698;10.078;2024-03-02T00:21:47;29.33;;;28.67;;
15486;SDS011;7845;53.698;10.078;2024-03-02T00:24:25;36.00;;;32.00;;
15486;SDS011;7845;53.698;10.078;2024-03-02T00:26:58;34.75;;;31.25;;
15486;SDS011;7845;53.698;10.078;2024-03-02T00:29:24;37.00;;;34.33;;
15486;SDS011;7845;53.698;10.078;2024-03-02T00:31:49;39.00;;;36.00;;
15486;SDS011;7845;53.698;10.078;2024-03-02T00:34:15;43.67;;;37.33;;
15486;SDS011;7845;53.698;10.078;2024-03-02T00:36:42;36.50;;;33.50;;
15486;SDS011;7845;53.698;10.078;2024-03-02T00:39:08;34.00;;;33.00;;
15486;SDS011;7845;53.698;10.078;2024-03-02T00:41:33;34.67;;;34.67;;
15486;SDS011;7845;53.698;10.078;2024-03-02T00:43:59;39.00;;;37.00;;
15486;SDS011;7845;53.698;10.078;2024-03-02T00:46:29;38.25;;;36.25;;
15486;SDS011;7845;53.698;10.078;2024-03-02T00:48:59;35.33;;;32.33;;
15486;SDS011;7845;53.698;10.078;2024-03-02T00:51:29;39.75;;;38.25;;
15486;SDS011;7845;53.698;10.078;2024-03-02T00:53:58;41.00;;;39.00;;
15486;SDS011;7845;53.698;10.078;2024-03-02T00:56:29;35.50;;;32.25;;
15486;SDS011;7845;53.698;10.078;2024-03-02T00:58:55;45.67;;;40.67;;
15486;SDS011;7845;53.698;10.078;2024-03-02T01:01:21;35.67;;;34.33;;
15486;SDS011;7845;53.698;10.078;2024-03-02T01:03:47;39.67;;;35.67;;
15486;SDS011;7845;53.698;10.078;2024-03-02T01:06:14;38.33;;;37.00;;
15486;SDS011;7845;53.698;10.078;2024-03-02T01:08:39;35.33;;;29.33;;
15486;SDS011;7845;53.698;10.078;2024-03-02T01:11:05;37.67;;;33.00;;
15486;SDS011;7845;53.698;10.078;2024-03-02T01:13:30;41.33;;;38.33;;
15486;SDS011;7845;53.698;10.078;2024-03-02T01:15:56;43.67;;;39.67;;
15486;SDS011;7845;53.698;10.078;2024-03-02T01:18:23;42.33;;;37.00;;
15486;SDS011;7845;53.698;10.078;2024-03-02T01:20:49;37.00;;;34.67;;
15486;SDS011;7845;53.698;10.078;2024-03-02T01:23:16;43.75;;;39.75;;
15486;SDS011;7845;53.698;10.078;2024-03-02T01:25:51;41.00;;;36.67;;
15486;SDS011;7845;53.698;10.078;2024-03-02T01:28:17;40.67;;;33.33;;
15486;SDS011;7845;53.698;10.078;2024-03-02T01:30:44;41.00;;;32.00;;
15486;SDS011;7845;53.698;10.078;2024-03-02T01:33:10;42.33;;;39.33;;
15486;SDS011;7845;53.698;10.078;2024-03-02T01:35:35;31.33;;;29.33;;
15486;SDS011;7845;53.698;10.078;2024-03-02T01:38:01;41.67;;;34.67;;
15486;SDS011;7845;53.698;10.078;2024-03-02T01:40:26;27.67;;;26.00;;
15486;SDS011;7845;53.698;10.078;2024-03-02T01:42:53;34.75;;;31.75;;
15486;SDS011;7845;53.698;10.078;2024-03-02T01:45:19;46.67;;;43.00;;
15486;SDS011;7845;53.698;10.078;2024-03-02T01:47:44;38.33;;;35.67;;
15486;SDS011;7845;53.698;10.078;2024-03-02T01:50:13;38.33;;;35.00;;
15486;SDS011;7845;53.698;10.078;2024-03-02T01:52:39;37.33;;;35.33;;
15486;SDS011;7845;53.698;10.078;2024-03-02T01:55:04;34.00;;;32.67;;
15486;SDS011;7845;53.698;10.078;2024-03-02T01:57:31;40.33;;;35.33;;
15486;SDS011;7845;53.698;10.078;2024-03-02T01:59:56;38.33;;;36.00;;
15486;SDS011;7845;53.698;10.078;2024-03-02T02:02:22;38.67;;;37.33;;
15486;SDS011;7845;53.698;10.078;2024-03-02T02:04:47;37.00;;;33.00;;
15486;SDS011;7845;53.698;10.078;2024-03-02T02:07:13;35.00;;;32.33;;
15486;SDS011;7845;53.698;10.078;2024-03-02T02:09:39;47.00;;;42.33;;
15486;SDS011;7845;53.698;10.078;2024-03-02T02:12:08;37.67;;;36.00;;
15486;SDS011;7845;53.698;10.078;2024-03-02T02:14:34;39.33;;;37.33;;
15486;SDS011;7845;53.698;10.078;2024-03-02T02:17:00;37.33;;;34.00;;
15486;SDS011;7845;53.698;10.078;2024-03-02T02:19:25;41.33;;;37.33;;
15486;SDS011;7845;53.698;10.078;2024-03-02T02:21:50;37.00;;;36.67;;
15486;SDS011;7845;53.698;10.078;2024-03-02T02:24:16;36.33;;;31.33;;
15486;SDS011;7845;53.698;10.078;2024-03-02T02:26:41;39.67;;;38.00;;
15486;SDS011;7845;53.698;10.078;2024-03-02T02:29:06;39.00;;;37.67;;
15486;SDS011;7845;53.698;10.078;2024-03-02T02:31:41;41.67;;;37.33;;
15486;SDS011;7845;53.698;10.078;2024-03-02T02:34:07;43.33;;;38.33;;
15486;SDS011;7845;53.698;10.078;2024-03-02T02:36:33;43.00;;;38.00;;
15486;SDS011;7845;53.698;10.078;2024-03-02T02:39:00;40.75;;;34.50;;
15486;SDS011;7845;53.698;10.078;2024-03-02T02:41:34;32.50;;;31.00;;
15486;SDS011;7845;53.698;10.078;2024-03-02T02:44:00;39.25;;;37.50;;
15486;SDS011;7845;53.698;10.078;2024-03-02T02:46:25;40.00;;;38.00;;
15486;SDS011;7845;53.698;10.078;2024-03-02T02:48:50;32.67;;;31.67;;
15486;SDS011;7845;53.698;10.078;2024-03-02T02:51:18;38.33;;;36.33;;
15486;SDS011;7845;53.698;10.078;2024-03-02T02:53:43;42.00;;;38.67;;
15486;SDS011;7845;53.698;10.078;2024-03-02T02:56:09;40.67;;;35.00;;
15486;SDS011;7845;53.698;10.078;2024-03-02T02:58:34;38.50;;;35.50;;
15486;SDS011;7845;53.698;10.078;2024-03-02T03:01:00;35.67;;;33.00;;
15486;SDS011;7845;53.698;10.078;2024-03-02T03:03:25;43.00;;;38.33;;
15486;SDS011;7845;53.698;10.078;2024-03-02T03:05:51;43.33;;;39.33;;
15486;SDS011;7845;53.698;10.078;2024-03-02T03:08:16;33.67;;;30.33;;
15486;SDS011;7845;53.698;10.078;2024-03-02T03:10:42;39.67;;;37.33;;
15486;SDS011;7845;53.698;10.078;2024-03-02T03:13:07;40.00;;;37.00;;
15486;SDS011;7845;53.698;10.078;2024-03-02T03:15:36;43.67;;;39.00;;
15486;SDS011;7845;53.698;10.078;2024-03-02T03:18:04;41.00;;;37.67;;
15486;SDS011;7845;53.698;10.078;2024-03-02T03:20:30;42.67;;;41.00;;
15486;SDS011;7845;53.698;10.078;2024-03-02T03:22:59;47.33;;;41.33;;
15486;SDS011;7845;53.698;10.078;2024-03-02T03:25:24;33.25;;;32.00;;
15486;SDS011;7845;53.698;10.078;2024-03-02T03:27:50;34.67;;;33.33;;
15486;SDS011;7845;53.698;10.078;2024-03-02T03:30:17;41.33;;;33.67;;
15486;SDS011;7845;53.698;10.078;2024-03-02T03:32:43;36.33;;;35.00;;
15486;SDS011;7845;53.698;10.078;2024-03-02T03:35:08;44.67;;;40.00;;
15486;SDS011;7845;53.698;10.078;2024-03-02T03:37:34;36.33;;;34.33;;
15486;SDS011;7845;53.698;10.078;2024-03-02T03:39:59;34.67;;;31.33;;
15486;SDS011;7845;53.698;10.078;2024-03-02T03:42:26;37.67;;;34.67;;
15486;SDS011;7845;53.698;10.078;2024-03-02T03:44:51;42.33;;;38.33;;
15486;SDS011;7845;53.698;10.078;2024-03-02T03:47:17;45.33;;;40.67;;
15486;SDS011;7845;53.698;10.078;2024-03-02T03:49:42;39.00;;;37.00;;
15486;SDS011;7845;53.698;10.078;2024-03-02T03:52:07;40.67;;;35.00;;
15486;SDS011;7845;53.698;10.078;2024-03-02T03:54:33;41.00;;;38.33;;
15486;SDS011;7845;53.698;10.078;2024-03-02T03:56:58;39.33;;;34.00;;
15486;SDS011;7845;53.698;10.078;2024-03-02T03:59:23;28.67;;;25.67;;
15486;SDS011;7845;53.698;10.078;2024-03-02T04:01:49;47.33;;;40.33;;
15486;SDS011;7845;53.698;10.078;2024-03-02T04:04:14;39.67;;;35.67;;
15486;SDS011;7845;53.698;10.078;2024-03-02T04:06:39;31.67;;;29.67;;
15486;SDS011;7845;53.698;10.078;2024-03-02T04:09:05;33.33;;;32.67;;
15486;SDS011;7845;53.698;10.078;2024-03-02T04:11:30;39.33;;;33.33;;
15486;SDS011;7845;53.698;10.078;2024-03-02T04:13:56;34.00;;;32.33;;
15486;SDS011;7845;53.698;10.078;2024-03-02T04:16:21;34.67;;;29.33;;
15486;SDS011;7845;53.698;10.078;2024-03-02T04:18:46;40.00;;;34.00;;
15486;SDS011;7845;53.698;10.078;2024-03-02T04:21:12;41.67;;;37.33;;
15486;SDS011;7845;53.698;10.078;2024-03-02T04:23:37;41.33;;;37.67;;
15486;SDS011;7845;53.698;10.078;2024-03-02T04:26:03;40.00;;;37.67;;
15486;SDS011;7845;53.698;10.078;2024-03-02T04:28:29;37.00;;;35.00;;
15486;SDS011;7845;53.698;10.078;2024-03-02T04:30:54;38.33;;;36.67;;
15486;SDS011;7845;53.698;10.078;2024-03-02T04:33:19;35.67;;;32.67;;
15486;SDS011;7845;53.698;10.078;2024-03-02T04:35:45;37.33;;;36.00;;
15486;SDS011;7845;53.698;10.078;2024-03-02T04:38:11;37.67;;;32.33;;
15486;SDS011;7845;53.698;10.078;2024-03-02T04:40:36;36.67;;;33.33;;
15486;SDS011;7845;53.698;10.078;2024-03-02T04:43:02;37.67;;;35.00;;
15486;SDS011;7845;53.698;10.078;2024-03-02T04:45:28;38.50;;;33.50;;
15486;SDS011;7845;53.698;10.078;2024-03-02T04:47:53;41.00;;;38.67;;
15486;SDS011;7845;53.698;10.078;2024-03-02T04:50:19;32.67;;;31.33;;
15486;SDS011;7845;53.698;10.078;2024-03-02T04:52:44;38.33;;;36.33;;
15486;SDS011;7845;53.698;10.078;2024-03-02T04:55:15;35.75;;;34.50;;
15486;SDS011;7845;53.698;10.078;2024-03-02T04:57:41;44.67;;;40.33;;
15486;SDS011;7845;53.698;10.078;2024-03-02T05:00:06;33.33;;;31.00;;
15486;SDS011;7845;53.698;10.078;2024-03-02T05:02:33;39.33;;;34.33;;
15486;SDS011;7845;53.698;10.078;2024-03-02T05:04:59;32.33;;;30.00;;
15486;SDS011;7845;53.698;10.078;2024-03-02T05:07:24;42.00;;;37.00;;
15486;SDS011;7845;53.698;10.078;2024-03-02T05:09:49;37.67;;;32.33;;
15486;SDS011;7845;53.698;10.078;2024-03-02T05:12:15;30.33;;;29.00;;
15486;SDS011;7845;53.698;10.078;2024-03-02T05:14:58;32.00;;;27.67;;
15486;SDS011;7845;53.698;10.078;2024-03-02T05:17:24;40.33;;;34.67;;
15486;SDS011;7845;53.698;10.078;2024-03-02T05:19:52;34.67;;;32.67;;
15486;SDS011;7845;53.698;10.078;2024-03-02T05:22:17;38.00;;;36.33;;
15486;SDS011;7845;53.698;10.078;2024-03-02T05:24:42;37.00;;;36.00;;
15486;SDS011;7845;53.698;10.078;2024-03-02T05:27:08;43.33;;;41.00;;
15486;SDS011;7845;53.698;10.078;2024-03-02T05:29:36;33.67;;;30.67;;
15486;SDS011;7845;53.698;10.078;2024-03-02T05:32:01;36.33;;;34.00;;
15486;SDS011;7845;53.698;10.078;2024-03-02T05:34:27;43.67;;;40.33;;
15486;SDS011;7845;53.698;10.078;2024-03-02T05:36:52;37.33;;;35.00;;
15486;SDS011;7845;53.698;10.078;2024-03-02T05:39:18;37.67;;;35.00;;
15486;SDS011;7845;53.698;10.078;2024-03-02T05:41:43;27.33;;;26.00;;
15486;SDS011;7845;53.698;10.078;2024-03-02T05:44:09;30.33;;;29.00;;
15486;SDS011;7845;53.698;10.078;2024-03-02T05:46:37;36.33;;;35.67;;
15486;SDS011;7845;53.698;10.078;2024-03-02T05:49:06;34.33;;;31.00;;
15486;SDS011;7845;53.698;10.078;2024-03-02T05:51:33;40.67;;;35.33;;
15486;SDS011;7845;53.698;10.078;2024-03-02T05:53:58;18.67;;;17.00;;
15486;SDS011;7845;53.698;10.078;2024-03-02T05:56:23;39.67;;;34.67;;
15486;SDS011;7845;53.698;10.078;2024-03-02T05:58:49;36.67;;;33.67;;
15486;SDS011;7845;53.698;10.078;2024-03-02T06:01:33;31.67;;;28.67;;
15486;SDS011;7845;53.698;10.078;2024-03-02T06:03:58;38.67;;;34.67;;
15486;SDS011;7845;53.698;10.078;2024-03-02T06:06:24;41.00;;;38.67;;
15486;SDS011;7845;53.698;10.078;2024-03-02T06:08:52;37.33;;;33.33;;
15486;SDS011;7845;53.698;10.078;2024-03-02T06:11:20;34.67;;;32.00;;
15486;SDS011;7845;53.698;10.078;2024-03-02T06:13:46;32.00;;;26.33;;
15486;SDS011;7845;53.698;10.078;2024-03-02T06:16:11;38.00;;;33.67;;
15486;SDS011;7845;53.698;10.078;2024-03-02T06:18:36;30.00;;;28.33;;
15486;SDS011;7845;53.698;10.078;2024-03-02T06:21:02;36.67;;;32.67;;
15486;SDS011;7845;53.698;10.078;2024-03-02T06:23:28;40.33;;;35.67;;
15486;SDS011;7845;53.698;10.078;2024-03-02T06:25:53;38.33;;;34.67;;
15486;SDS011;7845;53.698;10.078;2024-03-02T06:28:18;33.67;;;31.00;;
15486;SDS011;7845;53.698;10.078;2024-03-02T06:30:44;32.67;;;31.00;;
15486;SDS011;7845;53.698;10.078;2024-03-02T06:33:10;35.00;;;31.33;;
15486;SDS011;7845;53.698;10.078;2024-03-02T06:35:35;40.33;;;34.33;;
15486;SDS011;7845;53.698;10.078;2024-03-02T06:38:01;34.33;;;33.00;;
15486;SDS011;7845;53.698;10.078;2024-03-02T06:40:26;28.33;;;27.00;;
15486;SDS011;7845;53.698;10.078;2024-03-02T06:42:52;41.33;;;37.00;;
15486;SDS011;7845;53.698;10.078;2024-03-02T06:45:17;35.67;;;32.67;;
15486;SDS011;7845;53.698;10.078;2024-03-02T06:47:42;32.00;;;27.67;;
15486;SDS011;7845;53.698;10.078;2024-03-02T06:50:08;30.33;;;29.67;;
15486;SDS011;7845;53.698;10.078;2024-03-02T06:52:34;31.00;;;29.00;;
15486;SDS011;7845;53.698;10.078;2024-03-02T06:55:00;29.67;;;27.67;;
15486;SDS011;7845;53.698;10.078;2024-03-02T06:57:28;29.67;;;27.00;;
15486;SDS011;7845;53.698;10.078;2024-03-02T06:59:53;41.67;;;37.67;;
15486;SDS011;7845;53.698;10.078;2024-03-02T07:02:23;37.67;;;34.33;;
15486;SDS011;7845;53.698;10.078;2024-03-02T07:04:51;36.33;;;34.00;;
15486;SDS011;7845;53.698;10.078;2024-03-02T07:07:17;34.00;;;31.33;;
15486;SDS011;7845;53.698;10.078;2024-03-02T07:09:42;29.33;;;29.33;;
15486;SDS011;7845;53.698;10.078;2024-03-02T07:12:08;31.67;;;29.00;;
15486;SDS011;7845;53.698;10.078;2024-03-02T07:14:33;23.33;;;16.00;;
15486;SDS011;7845;53.698;10.078;2024-03-02T07:17:18;30.25;;;29.50;;
15486;SDS011;7845;53.698;10.078;2024-03-02T07:19:43;34.67;;;33.67;;
15486;SDS011;7845;53.698;10.078;2024-03-02T07:22:08;35.67;;;32.33;;
15486;SDS011;7845;53.698;10.078;2024-03-02T07:24:43;32.00;;;31.00;;
15486;SDS011;7845;53.698;10.078;2024-03-02T07:27:09;36.50;;;32.25;;
15486;SDS011;7845;53.698;10.078;2024-03-02T07:29:38;32.25;;;30.25;;
15486;SDS011;7845;53.698;10.078;2024-03-02T07:32:13;32.00;;;30.33;;
15486;SDS011;7845;53.698;10.078;2024-03-02T07:34:38;37.00;;;30.67;;
15486;SDS011;7845;53.698;10.078;2024-03-02T07:37:04;37.33;;;30.00;;
15486;SDS011;7845;53.698;10.078;2024-03-02T07:39:30;27.67;;;25.33;;
15486;SDS011;7845;53.698;10.078;2024-03-02T07:41:55;39.00;;;35.00;;
15486;SDS011;7845;53.698;10.078;2024-03-02T07:44:21;25.67;;;24.00;;
15486;SDS011;7845;53.698;10.078;2024-03-02T07:46:47;36.00;;;34.33;;
15486;SDS011;7845;53.698;10.078;2024-03-02T07:49:16;36.25;;;34.25;;
15486;SDS011;7845;53.698;10.078;2024-03-02T07:51:42;26.67;;;26.33;;
15486;SDS011;7845;53.698;10.078;2024-03-02T07:54:07;35.33;;;33.33;;
15486;SDS011;7845;53.698;10.078;2024-03-02T07:56:33;25.33;;;23.67;;
15486;SDS011;7845;53.698;10.078;2024-03-02T07:58:59;33.25;;;26.50;;
15486;SDS011;7845;53.698;10.078;2024-03-02T08:01:33;32.50;;;32.25;;
15486;SDS011;7845;53.698;10.078;2024-03-02T08:03:59;42.00;;;37.75;;
15486;SDS011;7845;53.698;10.078;2024-03-02T08:06:28;35.25;;;34.00;;
15486;SDS011;7845;53.698;10.078;2024-03-02T08:08:58;36.25;;;33.50;;
15486;SDS011;7845;53.698;10.078;2024-03-02T08:11:24;34.75;;;33.25;;
15486;SDS011;7845;53.698;10.078;2024-03-02T08:13:49;38.33;;;36.00;;
15486;SDS011;7845;53.698;10.078;2024-03-02T08:16:15;32.00;;;29.00;;
15486;SDS011;7845;53.698;10.078;2024-03-02T08:18:44;42.00;;;36.00;;
15486;SDS011;7845;53.698;10.078;2024-03-02T08:21:10;39.67;;;33.67;;
15486;SDS011;7845;53.698;10.078;2024-03-02T08:23:36;45.00;;;39.67;;
15486;SDS011;7845;53.698;10.078;2024-03-02T08:26:05;27.00;;;26.25;;
15486;SDS011;7845;53.698;10.078;2024-03-02T08:28:30;30.25;;;30.00;;
15486;SDS011;7845;53.698;10.078;2024-03-02T08:30:56;34.50;;;33.00;;
15486;SDS011;7845;53.698;10.078;2024-03-02T08:33:21;26.67;;;25.00;;
15486;SDS011;7845;53.698;10.078;2024-03-02T08:35:47;34.67;;;33.00;;
15486;SDS011;7845;53.698;10.078;2024-03-02T08:38:12;31.00;;;28.00;;
15486;SDS011;7845;53.698;10.078;2024-03-02T08:40:37;29.33;;;28.67;;
15486;SDS011;7845;53.698;10.078;2024-03-02T08:43:03;36.67;;;31.33;;
15486;SDS011;7845;53.698;10.078;2024-03-02T08:45:28;32.00;;;31.33;;
15486;SDS011;7845;53.698;10.078;2024-03-02T08:47:54;32.33;;;31.33;;
15486;SDS011;7845;53.698;10.078;2024-03-02T08:50:19;26.00;;;25.33;;
15486;SDS011;7845;53.698;10.078;2024-03-02T08:52:44;33.00;;;29.67;;
15486;SDS011;7845;53.698;10.078;2024-03-02T08:55:10;30.00;;;27.67;;
15486;SDS011;7845;53.698;10.078;2024-03-02T08:57:36;31.00;;;26.00;;
15486;SDS011;7845;53.698;10.078;2024-03-02T09:00:02;34.00;;;31.00;;
15486;SDS011;7845;53.698;10.078;2024-03-02T09:02:28;32.25;;;30.50;;
15486;SDS011;7845;53.698;10.078;2024-03-02T09:04:53;33.67;;;29.67;;
15486;SDS011;7845;53.698;10.078;2024-03-02T09:07:18;33.33;;;31.67;;
15486;SDS011;7845;53.698;10.078;2024-03-02T09:09:44;34.67;;;33.00;;
15486;SDS011;7845;53.698;10.078;2024-03-02T09:12:09;31.67;;;29.33;;
15486;SDS011;7845;53.698;10.078;2024-03-02T09:14:36;31.75;;;31.00;;
15486;SDS011;7845;53.698;10.078;2024-03-02T09:17:02;33.25;;;31.25;;
15486;SDS011;7845;53.698;10.078;2024-03-02T09:19:28;29.75;;;27.25;;
15486;SDS011;7845;53.698;10.078;2024-03-02T09:21:53;31.33;;;29.00;;
15486;SDS011;7845;53.698;10.078;2024-03-02T09:24:20;31.50;;;29.25;;
15486;SDS011;7845;53.698;10.078;2024-03-02T09:26:45;28.67;;;27.33;;
15486;SDS011;7845;53.698;10.078;2024-03-02T09:29:11;24.00;;;23.00;;
15486;SDS011;7845;53.698;10.078;2024-03-02T09:31:40;32.25;;;28.50;;
15486;SDS011;7845;53.698;10.078;2024-03-02T09:34:07;33.00;;;29.50;;
15486;SDS011;7845;53.698;10.078;2024-03-02T09:36:32;29.67;;;28.00;;
15486;SDS011;7845;53.698;10.078;2024-03-02T09:38:57;27.00;;;25.00;;
15486;SDS011;7845;53.698;10.078;2024-03-02T09:41:23;33.33;;;29.33;;
15486;SDS011;7845;53.698;10.078;2024-03-02T09:43:48;30.33;;;26.67;;
15486;SDS011;7845;53.698;10.078;2024-03-02T09:46:14;31.33;;;28.00;;
15486;SDS011;7845;53.698;10.078;2024-03-02T09:48:40;29.75;;;27.00;;
15486;SDS011;7845;53.698;10.078;2024-03-02T09:51:06;26.67;;;25.00;;
15486;SDS011;7845;53.698;10.078;2024-03-02T09:53:32;28.00;;;26.00;;
15486;SDS011;7845;53.698;10.078;2024-03-02T09:55:59;20.75;;;20.00;;
15486;SDS011;7845;53.698;10.078;2024-03-02T09:58:24;20.25;;;19.50;;
15486;SDS011;7845;53.698;10.078;2024-03-02T10:00:50;34.00;;;32.00;;
15486;SDS011;7845;53.698;10.078;2024-03-02T10:03:15;27.00;;;26.33;;
15486;SDS011;7845;53.698;10.078;2024-03-02T10:05:43;28.50;;;27.50;;
15486;SDS011;7845;53.698;10.078;2024-03-02T10:08:09;26.00;;;24.00;;
15486;SDS011;7845;53.698;10.078;2024-03-02T10:10:35;25.33;;;24.67;;
15486;SDS011;7845;53.698;10.078;2024-03-02T10:13:05;35.25;;;29.75;;
15486;SDS011;7845;53.698;10.078;2024-03-02T10:15:38;25.00;;;22.50;;
15486;SDS011;7845;53.698;10.078;2024-03-02T10:18:10;29.50;;;25.50;;
15486;SDS011;7845;53.698;10.078;2024-03-02T10:20:37;30.50;;;27.75;;
15486;SDS011;7845;53.698;10.078;2024-03-02T10:23:13;26.50;;;22.50;;
15486;SDS011;7845;53.698;10.078;2024-03-02T10:25:42;19.75;;;18.25;;
15486;SDS011;7845;53.698;10.078;2024-03-02T10:28:08;26.25;;;25.00;;
15486;SDS011;7845;53.698;10.078;2024-03-02T10:30:34;28.00;;;28.00;;
15486;SDS011;7845;53.698;10.078;2024-03-02T10:33:00;27.33;;;23.67;;
15486;SDS011;7845;53.698;10.078;2024-03-02T10:35:27;32.50;;;28.25;;
15486;SDS011;7845;53.698;10.078;2024-03-02T10:37:52;25.33;;;24.67;;
15486;SDS011;7845;53.698;10.078;2024-03-02T10:40:18;12.33;;;10.67;;
15486;SDS011;7845;53.698;10.078;2024-03-02T10:42:46;28.00;;;25.50;;
15486;SDS011;7845;53.698;10.078;2024-03-02T10:45:13;27.75;;;24.00;;
15486;SDS011;7845;53.698;10.078;2024-03-02T10:47:41;23.50;;;22.75;;
15486;SDS011;7845;53.698;10.078;2024-03-02T10:50:08;26.25;;;23.75;;
15486;SDS011;7845;53.698;10.078;2024-03-02T10:52:37;25.00;;;22.33;;
15486;SDS011;7845;53.698;10.078;2024-03-02T10:55:04;20.00;;;19.75;;
15486;SDS011;7845;53.698;10.078;2024-03-02T10:57:36;22.75;;;22.00;;
15486;SDS011;7845;53.698;10.078;2024-03-02T11:00:07;22.75;;;22.25;;
15486;SDS011;7845;53.698;10.078;2024-03-02T11:02:40;25.50;;;22.50;;
15486;SDS011;7845;53.698;10.078;2024-03-02T11:05:12;21.25;;;20.00;;
15486;SDS011;7845;53.698;10.078;2024-03-02T11:07:44;21.50;;;20.75;;
15486;SDS011;7845;53.698;10.078;2024-03-02T11:10:10;20.00;;;20.00;;
15486;SDS011;7845;53.698;10.078;2024-03-02T11:12:38;20.33;;;18.33;;
15486;SDS011;7845;53.698;10.078;2024-03-02T11:15:09;20.50;;;19.50;;
15486;SDS011;7845;53.698;10.078;2024-03-02T11:17:37;22.25;;;19.75;;
15486;SDS011;7845;53.698;10.078;2024-03-02T11:20:05;23.25;;;21.50;;
15486;SDS011;7845;53.698;10.078;2024-03-02T11:22:33;28.25;;;24.25;;
15486;SDS011;7845;53.698;10.078;2024-03-02T11:25:00;20.75;;;18.50;;
15486;SDS011;7845;53.698;10.078;2024-03-02T11:30:11;23.75;;;23.50;;
15486;SDS011;7845;53.698;10.078;2024-03-02T11:32:58;21.50;;;20.25;;
15486;SDS011;7845;53.698;10.078;2024-03-02T11:35:27;23.75;;;20.25;;
15486;SDS011;7845;53.698;10.078;2024-03-02T11:37:55;20.00;;;19.50;;
15486;SDS011;7845;53.698;10.078;2024-03-02T11:40:26;16.75;;;15.25;;
15486;SDS011;7845;53.698;10.078;2024-03-02T11:42:52;22.50;;;19.25;;
15486;SDS011;7845;53.698;10.078;2024-03-02T11:45:22;22.00;;;21.33;;
15486;SDS011;7845;53.698;10.078;2024-03-02T11:47:58;20.25;;;18.50;;
15486;SDS011;7845;53.698;10.078;2024-03-02T11:50:28;23.25;;;21.00;;
15486;SDS011;7845;53.698;10.078;2024-03-02T11:53:05;16.50;;;16.50;;
15486;SDS011;7845;53.698;10.078;2024-03-02T11:55:31;19.25;;;17.25;;
15486;SDS011;7845;53.698;10.078;2024-03-02T11:58:01;20.00;;;18.00;;
15486;SDS011;7845;53.698;10.078;2024-03-02T12:00:27;18.75;;;18.00;;
15486;SDS011;7845;53.698;10.078;2024-03-02T12:03:03;26.33;;;24.00;;
15486;SDS011;7845;53.698;10.078;2024-03-02T12:05:32;18.25;;;17.50;;
15486;SDS011;7845;53.698;10.078;2024-03-02T12:07:59;20.75;;;19.50;;
15486;SDS011;7845;53.698;10.078;2024-03-02T12:10:26;15.50;;;15.25;;
15486;SDS011;7845;53.698;10.078;2024-03-02T12:12:58;18.50;;;17.50;;
15486;SDS011;7845;53.698;10.078;2024-03-02T12:15:31;12.75;;;11.75;;
15486;SDS011;7845;53.698;10.078;2024-03-02T12:17:58;20.75;;;18.75;;
15486;SDS011;7845;53.698;10.078;2024-03-02T12:20:25;17.00;;;16.75;;
15486;SDS011;7845;53.698;10.078;2024-03-02T12:22:53;20.50;;;19.75;;
15486;SDS011;7845;53.698;10.078;2024-03-02T12:25:19;20.00;;;18.75;;
15486;SDS011;7845;53.698;10.078;2024-03-02T12:27:46;16.00;;;16.00;;
15486;SDS011;7845;53.698;10.078;2024-03-02T12:30:14;20.75;;;19.75;;
15486;SDS011;7845;53.698;10.078;2024-03-02T12:32:41;21.50;;;20.00;;
15486;SDS011;7845;53.698;10.078;2024-03-02T12:35:07;20.00;;;20.00;;
15486;SDS011;7845;53.698;10.078;2024-03-02T12:37:32;22.33;;;19.00;;
15486;SDS011;7845;53.698;10.078;2024-03-02T12:39:58;17.33;;;15.00;;
15486;SDS011;7845;53.698;10.078;2024-03-02T12:42:24;21.67;;;20.00;;
15486;SDS011;7845;53.698;10.078;2024-03-02T12:44:51;19.33;;;18.00;;
15486;SDS011;7845;53.698;10.078;2024-03-02T12:47:19;17.00;;;16.25;;
15486;SDS011;7845;53.698;10.078;2024-03-02T12:49:45;16.00;;;15.33;;
15486;SDS011;7845;53.698;10.078;2024-03-02T12:52:12;15.67;;;14.67;;
15486;SDS011;7845;53.698;10.078;2024-03-02T12:54:38;17.75;;;17.25;;
15486;SDS011;7845;53.698;10.078;2024-03-02T12:57:03;16.75;;;15.75;;
15486;SDS011;7845;53.698;10.078;2024-03-02T12:59:29;19.33;;;18.33;;
15486;SDS011;7845;53.698;10.078;2024-03-02T13:01:54;20.33;;;19.33;;
15486;SDS011;7845;53.698;10.078;2024-03-02T13:04:27;19.25;;;17.00;;
15486;SDS011;7845;53.698;10.078;2024-03-02T13:06:54;18.50;;;18.00;;
15486;SDS011;7845;53.698;10.078;2024-03-02T13:09:22;18.50;;;18.25;;
15486;SDS011;7845;53.698;10.078;2024-03-02T13:11:48;20.00;;;19.25;;
15486;SDS011;7845;53.698;10.078;2024-03-02T13:14:14;21.33;;;18.67;;
15486;SDS011;7845;53.698;10.078;2024-03-02T13:16:40;15.67;;;15.33;;
15486;SDS011;7845;53.698;10.078;2024-03-02T13:19:12;19.50;;;18.25;;
15486;SDS011;7845;53.698;10.078;2024-03-02T13:21:37;18.67;;;18.67;;
15486;SDS011;7845;53.698;10.078;2024-03-02T13:24:03;15.67;;;15.00;;
15486;SDS011;7845;53.698;10.078;2024-03-02T13:26:29;19.00;;;17.75;;
15486;SDS011;7845;53.698;10.078;2024-03-02T13:28:54;13.33;;;12.00;;
15486;SDS011;7845;53.698;10.078;2024-03-02T13:31:20;16.00;;;15.00;;
15486;SDS011;7845;53.698;10.078;2024-03-02T13:33:46;17.33;;;17.00;;
15486;SDS011;7845;53.698;10.078;2024-03-02T13:36:11;15.00;;;15.00;;
15486;SDS011;7845;53.698;10.078;2024-03-02T13:38:37;15.00;;;14.50;;
15486;SDS011;7845;53.698;10.078;2024-03-02T13:41:03;17.25;;;15.50;;
15486;SDS011;7845;53.698;10.078;2024-03-02T13:43:28;13.50;;;11.75;;
15486;SDS011;7845;53.698;10.078;2024-03-02T13:45:57;16.20;;;16.00;;
15486;SDS011;7845;53.698;10.078;2024-03-02T13:48:23;15.50;;;12.50;;
15486;SDS011;7845;53.698;10.078;2024-03-02T13:50:50;16.75;;;16.00;;
15486;SDS011;7845;53.698;10.078;2024-03-02T13:53:17;21.25;;;19.50;;
15486;SDS011;7845;53.698;10.078;2024-03-02T13:55:42;15.33;;;15.33;;
15486;SDS011;7845;53.698;10.078;2024-03-02T13:58:08;17.00;;;15.00;;
15486;SDS011;7845;53.698;10.078;2024-03-02T14:00:34;16.00;;;15.50;;
15486;SDS011;7845;53.698;10.078;2024-03-02T14:02:59;24.00;;;21.33;;
15486;SDS011;7845;53.698;10.078;2024-03-02T14:05:25;7.33;;;5.67;;
15486;SDS011;7845;53.698;10.078;2024-03-02T14:07:50;19.67;;;17.33;;
15486;SDS011;7845;53.698;10.078;2024-03-02T14:10:16;17.00;;;15.33;;
15486;SDS011;7845;53.698;10.078;2024-03-02T14:12:41;20.67;;;19.67;;
15486;SDS011;7845;53.698;10.078;2024-03-02T14:15:07;19.67;;;15.67;;
15486;SDS011;7845;53.698;10.078;2024-03-02T14:17:32;15.00;;;14.67;;
15486;SDS011;7845;53.698;10.078;2024-03-02T14:19:57;16.67;;;15.33;;
15486;SDS011;7845;53.698;10.078;2024-03-02T14:22:26;18.75;;;17.00;;